Time;durP1;ratioP1;P1;durP2;ratioP2;P2;SDS_P1;SDS_P2;PMS_P1;PMS_P2;Temp;Humidity;BMP_temperature;BMP_pressure;BME280_temperature;BME280_humidity;BME280_pressure;Samples;Min_cycle;Max_cycle;Signal;HPM_P1;HPM_P2
2022/10/11 00:00:04;;;;;;;23.30;8.10;;;5.40;99.90;;;;;;6246012;23;20017;-85
2022/10/11 00:02:33;;;;;;;23.97;8.30;;;5.40;99.90;;;;;;6219228;23;20099;-85
2022/10/11 00:04:59;;;;;;;24.43;6.70;;;5.40;99.90;;;;;;6220298;23;20050;-85
2022/10/11 00:07:25;;;;;;;24.67;6.67;;;5.40;99.90;;;;;;6218383;23;20024;-86
2022/10/11 00:09:51;;;;;;;18.17;6.07;;;5.40;99.90;;;;;;6219316;23;20417;-86
2022/10/11 00:12:16;;;;;;;27.40;7.77;;;5.40;99.90;;;;;;6246233;23;20016;-85
2022/10/11 00:14:42;;;;;;;26.70;8.50;;;5.40;99.90;;;;;;6218638;23;20441;-86
2022/10/11 00:17:07;;;;;;;36.33;12.40;;;5.40;99.90;;;;;;6218780;23;20024;-85
2022/10/11 00:19:33;;;;;;;22.67;7.53;;;5.40;99.90;;;;;;6216934;23;20070;-86
2022/10/11 00:22:11;;;;;;;38.63;13.70;;;7.10;99.90;;;;;;6217116;23;20016;-85
2022/10/11 00:24:37;;;;;;;25.30;8.37;;;5.60;99.90;;;;;;6218200;23;20456;-86
2022/10/11 00:27:15;;;;;;;23.90;7.27;;;5.30;99.90;;;;;;6243939;23;20022;-85
2022/10/11 00:29:40;;;;;;;25.43;7.03;;;5.30;99.90;;;;;;6244923;23;20087;-86
2022/10/11 00:32:19;;;;;;;25.97;6.73;;;5.40;99.90;;;;;;6244207;23;20495;-85
2022/10/11 00:34:45;;;;;;;22.10;7.30;;;5.10;99.90;;;;;;6215005;23;20528;-86
2022/10/11 00:37:23;;;;;;;25.80;8.13;;;5.70;99.90;;;;;;6244172;23;20016;-85
2022/10/11 00:39:48;;;;;;;25.70;6.60;;;5.70;99.90;;;;;;6217596;23;20016;-85
2022/10/11 00:42:16;;;;;;;23.40;7.33;;;5.40;99.90;;;;;;6216233;23;20023;-85
2022/10/11 00:44:44;;;;;;;27.03;7.67;;;5.50;99.90;;;;;;6244549;23;20455;-85
2022/10/11 00:47:14;;;;;;;25.37;7.87;;;5.60;99.90;;;;;;6217080;23;20016;-85
2022/10/11 00:49:42;;;;;;;25.70;8.83;;;5.60;99.90;;;;;;6216759;23;20468;-85
2022/10/11 00:52:14;;;;;;;25.70;7.23;;;5.40;99.90;;;;;;6217289;23;20042;-85
2022/10/11 00:54:42;;;;;;;23.50;6.40;;;5.40;99.90;;;;;;6217684;23;20016;-85
2022/10/11 00:57:13;;;;;;;22.67;6.73;;;5.30;99.90;;;;;;6242975;23;20047;-85
2022/10/11 00:59:43;;;;;;;23.60;7.43;;;5.30;99.90;;;;;;6217100;23;20020;-85
2022/10/11 01:02:10;;;;;;;24.57;7.07;;;5.30;99.90;;;;;;6216299;23;20336;-85
2022/10/11 01:04:36;;;;;;;20.93;6.80;;;5.20;99.90;;;;;;6245012;23;20020;-85
2022/10/11 01:07:04;;;;;;;22.60;6.70;;;5.30;99.90;;;;;;6217654;23;20016;-85
2022/10/11 01:09:30;;;;;;;22.97;6.77;;;5.10;99.90;;;;;;6216675;23;20027;-85
2022/10/11 01:12:00;;;;;;;21.93;6.90;;;5.10;99.90;;;;;;6217701;23;20065;-85
2022/10/11 01:14:52;;;;;;;25.30;6.97;;;5.00;99.90;;;;;;6243616;23;20752;-85
2022/10/11 01:17:30;;;;;;;25.90;7.10;;;5.10;99.90;;;;;;6216285;23;20023;-85
2022/10/11 01:20:15;;;;;;;25.20;6.37;;;5.00;99.90;;;;;;6192119;23;1231963;-85
2022/10/11 01:22:51;;;;;;;20.17;7.20;;;5.30;99.90;;;;;;6246267;23;20039;-85
2022/10/11 01:25:31;;;;;;;20.37;7.40;;;4.90;99.90;;;;;;6217922;23;20020;-85
2022/10/11 01:28:12;;;;;;;23.93;6.90;;;4.80;99.90;;;;;;6245830;23;20013;-85
2022/10/11 01:30:39;;;;;;;22.40;6.67;;;4.60;99.90;;;;;;6218128;23;20020;-85
2022/10/11 01:33:30;;;;;;;37.07;7.50;;;4.80;99.90;;;;;;6218768;23;20012;-85
2022/10/11 01:36:26;;;;;;;20.97;6.47;;;4.90;99.90;;;;;;6218794;23;20099;-85
2022/10/11 01:39:16;;;;;;;23.20;6.83;;;4.90;99.90;;;;;;6244660;23;20016;-85
2022/10/11 01:41:46;;;;;;;23.10;6.83;;;4.90;99.90;;;;;;6218665;23;20031;-85
2022/10/11 01:44:13;;;;;;;20.43;6.60;;;4.80;99.90;;;;;;6217361;23;20341;-86
2022/10/11 01:46:40;;;;;;;21.87;6.93;;;4.80;99.90;;;;;;6218493;23;20318;-85
2022/10/11 01:49:06;;;;;;;24.23;6.63;;;4.80;99.90;;;;;;6218877;23;20475;-85
2022/10/11 01:51:36;;;;;;;22.53;6.57;;;4.80;99.90;;;;;;6244708;23;20017;-85
2022/10/11 01:54:29;;;;;;;22.40;6.47;;;4.70;99.90;;;;;;6245551;23;20380;-85
2022/10/11 01:57:14;;;;;;;23.90;6.80;;;4.80;99.90;;;;;;6218458;23;20380;-84
2022/10/11 01:59:54;;;;;;;24.67;6.60;;;4.80;99.90;;;;;;6244270;23;20558;-85
2022/10/11 02:03:00;;;;;;;27.13;6.53;;;4.70;99.90;;;;;;6217049;23;20034;-85
2022/10/11 02:05:26;;;;;;;21.93;6.37;;;4.70;99.90;;;;;;6241990;23;20019;-85
2022/10/11 02:08:16;;;;;;;23.77;6.20;;;4.80;99.90;;;;;;6244637;23;20062;-85
2022/10/11 02:11:12;;;;;;;27.90;6.50;;;4.70;99.90;;;;;;6218282;23;20348;-85
2022/10/11 02:14:23;;;;;;;27.13;6.50;;;4.80;99.90;;;;;;6255032;22;20086;-85
2022/10/11 02:16:53;;;;;;;27.70;6.77;;;4.90;99.90;;;;;;6248575;22;20118;-85
2022/10/11 02:19:25;;;;;;;24.13;6.43;;;4.90;99.90;;;;;;6248388;22;20374;-85
2022/10/11 02:21:56;;;;;;;22.67;6.87;;;4.90;99.90;;;;;;6248710;22;20035;-85
2022/10/11 02:24:33;;;;;;;22.40;6.57;;;5.00;99.90;;;;;;6248300;22;20051;-85
2022/10/11 02:27:02;;;;;;;22.63;6.57;;;5.10;99.90;;;;;;6247865;22;20336;-85
2022/10/11 02:29:31;;;;;;;20.47;6.83;;;5.10;99.90;;;;;;6248446;22;20039;-85
2022/10/11 02:31:59;;;;;;;23.37;6.40;;;5.10;99.90;;;;;;6248920;22;20098;-85
2022/10/11 02:34:34;;;;;;;21.80;6.23;;;5.10;99.90;;;;;;6274707;22;20058;-85
2022/10/11 02:37:07;;;;;;;20.37;5.83;;;5.10;99.90;;;;;;6248773;22;20118;-85
2022/10/11 02:39:51;;;;;;;26.63;6.40;;;4.90;99.90;;;;;;6248560;22;20456;-85
2022/10/11 02:42:35;;;;;;;22.67;6.50;;;4.90;99.90;;;;;;6247408;22;20339;-85
2022/10/11 02:45:06;;;;;;;21.50;5.88;;;5.00;99.90;;;;;;6248815;22;20344;-85
2022/10/11 02:47:33;;;;;;;24.80;6.97;;;5.10;99.90;;;;;;6275230;22;20039;-85
2022/10/11 02:49:59;;;;;;;20.83;6.33;;;5.10;99.90;;;;;;6248620;22;20016;-85
2022/10/11 02:52:25;;;;;;;26.63;6.43;;;5.10;99.90;;;;;;6275723;22;20034;-84
2022/10/11 02:54:51;;;;;;;23.13;6.70;;;4.90;99.90;;;;;;6247870;22;20122;-85
2022/10/11 02:57:16;;;;;;;20.43;6.63;;;4.90;99.90;;;;;;6247902;22;20050;-85
2022/10/11 02:59:42;;;;;;;26.27;6.70;;;4.90;99.90;;;;;;6275478;22;20091;-85
2022/10/11 03:02:07;;;;;;;19.43;6.30;;;4.80;99.90;;;;;;6273808;22;20087;-85
2022/10/11 03:04:33;;;;;;;20.03;6.27;;;4.70;99.90;;;;;;6248662;22;20023;-85
2022/10/11 03:06:59;;;;;;;25.27;6.40;;;4.70;99.90;;;;;;6276085;22;20069;-85
2022/10/11 03:09:25;;;;;;;24.13;6.47;;;4.70;99.90;;;;;;6274596;22;20008;-85
2022/10/11 03:11:50;;;;;;;24.23;6.50;;;4.70;99.90;;;;;;6275341;22;20070;-85
2022/10/11 03:14:19;;;;;;;24.37;6.57;;;4.70;99.90;;;;;;6277173;22;20020;-85
2022/10/11 03:16:44;;;;;;;19.00;5.80;;;4.70;99.90;;;;;;6249707;22;20066;-85
2022/10/11 03:19:10;;;;;;;17.77;5.97;;;4.60;99.90;;;;;;6250408;22;20012;-85
2022/10/11 03:21:36;;;;;;;22.97;6.57;;;4.50;99.90;;;;;;6250711;22;20008;-84
2022/10/11 03:24:02;;;;;;;22.20;6.50;;;4.40;99.90;;;;;;6277061;22;20449;-84
2022/10/11 03:26:28;;;;;;;26.10;6.53;;;4.50;99.90;;;;;;6277407;22;20019;-84
2022/10/11 03:28:54;;;;;;;25.50;6.23;;;4.30;99.90;;;;;;6278012;22;20340;-85
2022/10/11 03:31:20;;;;;;;17.57;6.27;;;4.40;99.90;;;;;;6276085;22;20470;-84
2022/10/11 03:33:46;;;;;;;24.57;7.20;;;4.30;99.90;;;;;;6250365;22;20344;-85
2022/10/11 03:36:12;;;;;;;21.93;6.63;;;4.30;99.90;;;;;;6249913;22;20020;-85
2022/10/11 03:38:38;;;;;;;25.10;8.87;;;5.90;99.90;;;;;;6249029;22;20042;-84
2022/10/11 03:41:03;;;;;;;36.67;19.00;;;4.20;99.90;;;;;;6250061;22;20016;-85
2022/10/11 03:43:29;;;;;;;32.83;19.40;;;4.20;99.90;;;;;;6249561;22;20285;-85
2022/10/11 03:45:55;;;;;;;25.20;9.97;;;4.10;99.90;;;;;;6276753;22;20118;-85
2022/10/11 03:48:21;;;;;;;24.27;7.67;;;4.10;99.90;;;;;;6249855;22;20023;-85
2022/10/11 03:50:47;;;;;;;27.13;10.10;;;4.20;99.90;;;;;;6249495;22;20015;-85
2022/10/11 03:53:13;;;;;;;23.60;9.43;;;4.10;99.90;;;;;;6249460;22;20098;-85
2022/10/11 03:55:42;;;;;;;25.83;9.27;;;4.10;99.90;;;;;;6249835;22;20020;-84
2022/10/11 03:58:08;;;;;;;32.13;17.37;;;4.00;99.90;;;;;;6275998;22;20077;-85
2022/10/11 04:00:34;;;;;;;26.13;10.53;;;4.00;99.90;;;;;;6249262;22;20023;-84
2022/10/11 04:03:02;;;;;;;50.90;31.20;;;4.00;99.90;;;;;;6249045;22;20018;-85
2022/10/11 04:05:28;;;;;;;41.83;24.57;;;4.00;99.90;;;;;;6247959;22;20020;-85
2022/10/11 04:07:54;;;;;;;24.47;9.60;;;4.00;99.90;;;;;;6277092;22;20011;-85
2022/10/11 04:10:19;;;;;;;22.83;9.53;;;3.90;99.90;;;;;;6249588;22;20391;-85
2022/10/11 04:12:45;;;;;;;24.47;8.60;;;3.90;99.90;;;;;;6249031;22;20020;-85
2022/10/11 04:15:13;;;;;;;39.27;24.63;;;3.80;99.90;;;;;;6276588;22;20019;-85
2022/10/11 04:18:30;;;;;;;43.27;27.20;;;3.70;99.90;;;;;;6275702;22;20323;-85
2022/10/11 04:20:55;;;;;;;39.23;23.47;;;4.50;99.90;;;;;;6248368;22;20026;-85
2022/10/11 04:23:21;;;;;;;43.13;28.60;;;5.10;99.90;;;;;;6248944;22;20012;-85
2022/10/11 04:25:47;;;;;;;19.63;6.60;;;3.80;99.90;;;;;;6250239;22;20067;-85
2022/10/11 04:28:13;;;;;;;22.53;6.73;;;3.80;99.90;;;;;;6276011;22;20097;-85
2022/10/11 04:30:38;;;;;;;18.17;6.63;;;5.10;99.90;;;;;;6249919;22;20050;-85
2022/10/11 04:33:04;;;;;;;21.27;6.70;;;3.80;99.90;;;;;;6248982;22;20023;-85
2022/10/11 04:35:30;;;;;;;55.73;35.87;;;3.70;99.90;;;;;;6276205;22;20093;-85
2022/10/11 04:37:56;;;;;;;19.50;7.33;;;3.90;99.90;;;;;;6276600;22;20023;-85
2022/10/11 04:40:21;;;;;;;26.70;8.70;;;4.00;99.90;;;;;;6248472;22;20016;-85
2022/10/11 04:42:49;;;;;;;27.87;8.73;;;4.00;99.90;;;;;;6249662;22;20043;-86
2022/10/11 04:45:14;;;;;;;26.87;9.10;;;4.10;99.90;;;;;;6249247;22;20062;-86
2022/10/11 04:47:40;;;;;;;28.37;10.97;;;4.10;99.90;;;;;;6250280;22;20038;-86
2022/10/11 04:50:06;;;;;;;52.70;34.60;;;4.10;99.90;;;;;;6249316;22;20031;-85
2022/10/11 04:52:32;;;;;;;24.60;8.83;;;4.10;99.90;;;;;;6249266;22;20073;-86
2022/10/11 04:55:01;;;;;;;26.03;8.17;;;4.10;99.90;;;;;;6275084;22;20004;-85
2022/10/11 04:57:29;;;;;;;26.53;8.23;;;4.10;99.90;;;;;;6249155;22;20019;-86
2022/10/11 05:00:17;;;;;;;27.20;13.53;;;5.70;99.90;;;;;;6249520;22;20015;-86
2022/10/11 05:02:42;;;;;;;37.37;16.43;;;2.70;99.90;;;;;;6276100;22;20121;-86
2022/10/11 05:05:16;;;;;;;21.33;6.77;;;3.90;99.90;;;;;;6249601;22;20094;-86
2022/10/11 05:07:48;;;;;;;24.23;7.85;;;4.00;99.90;;;;;;6250114;22;20015;-86
2022/10/11 05:10:28;;;;;;;21.10;7.87;;;4.00;99.90;;;;;;6247413;22;20016;-86
2022/10/11 05:13:12;;;;;;;35.10;18.10;;;3.90;99.90;;;;;;6276655;22;20070;-85
2022/10/11 05:15:38;;;;;;;23.95;8.25;;;4.20;99.90;;;;;;6248538;22;20090;-85
2022/10/11 05:18:03;;;;;;;22.27;7.23;;;4.10;99.90;;;;;;6243741;23;20093;-85
2022/10/11 05:20:41;;;;;;;20.63;6.37;;;5.90;99.90;;;;;;6269930;22;20444;-85
2022/10/11 05:23:07;;;;;;;22.67;6.33;;;4.10;99.90;;;;;;6275289;22;20027;-86
2022/10/11 05:25:33;;;;;;;25.50;8.47;;;4.30;99.90;;;;;;6276599;22;20015;-86
2022/10/11 05:27:59;;;;;;;36.27;19.70;;;4.40;99.90;;;;;;6276395;22;20483;-86
2022/10/11 05:30:24;;;;;;;34.87;16.90;;;4.30;99.90;;;;;;6248227;22;20407;-86
2022/10/11 05:32:50;;;;;;;20.63;6.67;;;4.40;99.90;;;;;;6276661;22;20375;-86
2022/10/11 05:35:16;;;;;;;20.23;5.90;;;5.30;99.90;;;;;;6275826;22;20463;-86
2022/10/11 05:37:41;;;;;;;20.13;6.67;;;4.50;99.90;;;;;;6248908;22;20015;-86
2022/10/11 05:40:07;;;;;;;30.00;11.33;;;4.60;99.90;;;;;;6276293;22;20443;-86
2022/10/11 05:42:33;;;;;;;25.57;8.23;;;4.60;99.90;;;;;;6276522;22;20011;-86
2022/10/11 05:44:58;;;;;;;24.27;8.70;;;4.70;99.90;;;;;;6275635;22;20016;-86
2022/10/11 05:47:24;;;;;;;29.63;8.57;;;4.70;99.90;;;;;;6248441;22;20023;-86
2022/10/11 05:49:50;;;;;;;31.97;13.17;;;4.80;99.90;;;;;;6248840;22;20091;-86
2022/10/11 05:52:19;;;;;;;26.13;9.53;;;4.70;99.90;;;;;;6247639;22;20521;-86
2022/10/11 05:54:45;;;;;;;20.23;8.47;;;4.70;99.90;;;;;;6276083;22;20375;-86
2022/10/11 05:58:20;;;;;;;31.60;8.27;;;4.80;99.90;;;;;;6241714;22;20011;-86
2022/10/11 06:00:45;;;;;;;23.50;7.75;;;4.10;99.90;;;;;;6218330;23;20020;-82
2022/10/11 06:03:12;;;;;;;24.00;8.10;;;4.60;99.90;;;;;;6218144;23;20450;-82
2022/10/11 06:16:29;;;;;;;28.70;9.07;;;5.30;99.90;;;;;;6275600;22;20015;-83
2022/10/11 06:18:58;;;;;;;24.73;9.40;;;5.00;99.90;;;;;;6274397;22;20020;-83
2022/10/11 06:21:30;;;;;;;24.90;8.57;;;5.30;99.90;;;;;;6275989;22;20314;-83
2022/10/11 06:23:55;;;;;;;38.33;9.60;;;4.80;99.90;;;;;;6248754;22;20011;-82
2022/10/11 06:26:21;;;;;;;30.30;9.27;;;5.30;99.90;;;;;;6247227;22;20503;-83
2022/10/11 06:28:47;;;;;;;27.87;8.60;;;5.30;99.90;;;;;;6275338;22;20015;-82
2022/10/11 06:31:13;;;;;;;26.23;8.83;;;5.40;99.90;;;;;;6248168;22;20015;-82
2022/10/11 06:33:39;;;;;;;26.90;10.13;;;5.40;99.90;;;;;;6247109;22;20015;-82
2022/10/11 06:36:08;;;;;;;29.73;10.93;;;5.40;99.90;;;;;;6248659;22;20027;-82
2022/10/11 06:38:34;;;;;;;31.47;10.80;;;5.40;99.90;;;;;;6248761;22;20082;-82
2022/10/11 06:41:14;;;;;;;28.90;10.03;;;5.30;99.90;;;;;;6247743;22;20051;-82
2022/10/11 06:43:40;;;;;;;29.33;10.23;;;5.40;99.90;;;;;;6275952;22;20019;-82
2022/10/11 06:46:06;;;;;;;35.13;9.90;;;5.40;99.90;;;;;;6276501;22;20051;-82
2022/10/11 06:48:32;;;;;;;29.67;10.37;;;5.40;99.90;;;;;;6250033;22;20051;-82
2022/10/11 06:50:58;;;;;;;27.50;10.83;;;5.50;99.90;;;;;;6277824;22;20474;-82
2022/10/11 06:53:24;;;;;;;30.17;9.60;;;4.90;99.90;;;;;;6250538;22;20008;-82
2022/10/11 06:55:50;;;;;;;24.67;9.70;;;5.60;99.90;;;;;;6277318;22;20365;-82
2022/10/11 06:58:15;;;;;;;31.87;10.10;;;5.60;99.90;;;;;;6277643;22;20008;-82
2022/10/11 07:00:41;;;;;;;26.77;9.43;;;5.70;99.90;;;;;;6250198;22;20379;-82
2022/10/11 07:03:07;;;;;;;26.07;8.40;;;5.70;99.90;;;;;;6250369;22;20023;-83
2022/10/11 07:05:33;;;;;;;25.17;8.80;;;5.70;99.90;;;;;;6278323;22;20011;-82
2022/10/11 07:07:59;;;;;;;27.93;8.40;;;5.90;99.90;;;;;;6277122;22;20278;-82
2022/10/11 07:10:26;;;;;;;22.13;9.37;;;5.80;99.90;;;;;;6253929;22;20038;-82
2022/10/11 07:12:51;;;;;;;24.00;7.67;;;5.70;99.90;;;;;;6278144;22;20011;-82
2022/10/11 07:15:17;;;;;;;22.40;8.00;;;5.90;99.90;;;;;;6249203;22;20114;-82
2022/10/11 07:17:43;;;;;;;22.27;7.97;;;6.00;99.90;;;;;;6277598;22;20003;-82
2022/10/11 07:20:09;;;;;;;29.07;8.57;;;6.00;99.90;;;;;;6250091;22;20008;-82
2022/10/11 07:22:35;;;;;;;24.80;8.87;;;6.10;99.90;;;;;;6249337;22;20023;-82
2022/10/11 07:25:00;;;;;;;35.07;10.97;;;6.20;99.90;;;;;;6250298;22;20014;-82
2022/10/11 07:27:26;;;;;;;24.63;8.23;;;6.20;99.90;;;;;;6277165;22;20016;-83
2022/10/11 07:29:52;;;;;;;22.53;8.43;;;6.30;99.90;;;;;;6249519;22;20016;-82
2022/10/11 07:32:17;;;;;;;23.80;7.93;;;6.30;99.90;;;;;;6250214;22;20034;-82
2022/10/11 07:34:43;;;;;;;26.90;7.67;;;6.40;99.90;;;;;;6250910;22;20336;-83
2022/10/11 07:37:08;;;;;;;25.40;8.43;;;6.40;99.90;;;;;;6276747;22;20340;-82
2022/10/11 07:39:34;;;;;;;20.60;7.57;;;6.50;99.90;;;;;;6277985;22;20370;-83
2022/10/11 07:42:00;;;;;;;22.70;8.00;;;6.60;99.90;;;;;;6250284;22;20024;-83
2022/10/11 07:44:26;;;;;;;21.53;8.20;;;6.60;99.90;;;;;;6276191;22;20015;-82
2022/10/11 07:46:51;;;;;;;17.30;7.13;;;6.60;99.90;;;;;;6276106;22;20020;-83
2022/10/11 07:49:17;;;;;;;19.67;7.97;;;6.60;99.90;;;;;;6249594;22;20016;-83
2022/10/11 07:51:42;;;;;;;20.77;7.83;;;6.60;99.90;;;;;;6248898;22;20356;-83
2022/10/11 07:54:08;;;;;;;24.77;7.83;;;6.70;99.90;;;;;;6277422;22;20432;-83
2022/10/11 07:56:35;;;;;;;22.70;8.40;;;6.70;99.90;;;;;;6249305;22;20015;-85
2022/10/11 07:59:05;;;;;;;20.93;7.67;;;6.60;99.90;;;;;;6276459;22;20011;-83
2022/10/11 08:01:31;;;;;;;24.80;8.83;;;6.70;99.90;;;;;;6249850;22;20047;-84
2022/10/11 08:03:57;;;;;;;27.77;9.10;;;6.80;99.90;;;;;;6249871;22;20011;-84
2022/10/11 08:06:28;;;;;;;23.50;9.03;;;6.70;99.90;;;;;;6249251;22;20011;-83
2022/10/11 08:08:58;;;;;;;24.07;9.47;;;6.80;99.90;;;;;;6249595;22;20016;-83
2022/10/11 08:11:32;;;;;;;22.13;9.50;;;6.80;99.90;;;;;;6275988;22;20012;-83
2022/10/11 08:14:17;;;;;;;22.23;9.67;;;6.90;99.90;;;;;;6243855;23;20016;-83
2022/10/11 08:16:42;;;;;;;;;;;7.20;99.90;;;;;;6245770;23;20095;-83
2022/10/11 08:19:23;;;;;;;23.20;9.53;;;7.10;99.90;;;;;;6243829;23;20308;-83
2022/10/11 08:22:07;;;;;;;25.60;9.60;;;6.80;99.90;;;;;;6246848;23;20062;-84
2022/10/11 08:24:33;;;;;;;18.60;8.00;;;7.20;99.90;;;;;;6244366;23;20016;-82
2022/10/11 08:27:08;;;;;;;25.83;8.07;;;7.30;99.90;;;;;;6245208;22;20047;-82
2022/10/11 08:30:11;;;;;;;22.80;10.43;;;7.00;99.90;;;;;;6240202;23;20020;-80
2022/10/11 08:32:49;;;;;;;22.33;7.30;;;7.60;99.90;;;;;;6243253;23;20012;-81
2022/10/11 08:35:27;;;;;;;28.92;8.20;;;8.00;99.90;;;;;;6245051;23;20464;-81
2022/10/11 08:38:08;;;;;;;22.67;7.67;;;6.80;99.90;;;;;;6245493;23;20069;-81
2022/10/11 08:40:34;;;;;;;20.23;7.70;;;8.30;99.90;;;;;;6242452;23;20427;-82
2022/10/11 08:43:05;;;;;;;20.02;7.30;;;7.80;99.90;;;;;;6242794;23;20027;-82
2022/10/11 08:45:49;;;;;;;17.15;6.80;;;8.00;99.90;;;;;;6243635;23;20031;-82
2022/10/11 08:48:44;;;;;;;23.70;11.15;;;8.10;99.90;;;;;;6242543;23;20459;-82
2022/10/11 08:51:36;;;;;;;18.42;7.25;;;8.20;99.90;;;;;;6245104;22;20059;-82
2022/10/11 08:54:28;;;;;;;15.75;5.88;;;8.30;99.90;;;;;;6245162;22;20012;-82
2022/10/11 08:56:56;;;;;;;24.55;14.15;;;8.30;99.90;;;;;;6243517;23;20020;-82
2022/10/11 08:59:29;;;;;;;21.05;9.32;;;8.40;99.90;;;;;;6243466;23;20024;-82
2022/10/11 09:02:45;;;;;;;20.70;6.05;;;8.50;99.90;;;;;;6245127;22;20018;-83
2022/10/11 09:05:15;;;;;;;17.45;6.63;;;8.60;99.90;;;;;;6194164;22;20020;-83
2022/10/11 09:08:01;;;;;;;16.38;5.70;;;9.60;99.90;;;;;;6245010;22;20142;-83
2022/10/11 09:10:50;;;;;;;21.13;5.35;;;8.80;99.90;;;;;;6243265;23;20024;-83
2022/10/11 09:13:40;;;;;;;18.13;4.97;;;8.90;99.90;;;;;;6243060;23;20039;-83
2022/10/11 09:16:20;;;;;;;17.08;4.82;;;9.00;99.90;;;;;;6242804;23;20448;-83
2022/10/11 09:19:15;;;;;;;16.95;4.40;;;9.10;99.90;;;;;;6245336;22;20054;-83
2022/10/11 09:24:44;;;;;;;11.50;3.25;;;9.40;99.90;;;;;;6258074;22;20024;-84
2022/10/11 09:27:39;;;;;;;12.63;3.75;;;10.10;99.90;;;;;;6248277;22;20011;-83
2022/10/11 09:30:18;;;;;;;17.35;3.88;;;9.70;99.90;;;;;;6247669;22;20468;-82
2022/10/11 09:33:06;;;;;;;16.02;3.03;;;9.80;99.90;;;;;;6248541;22;20030;-82
2022/10/11 09:35:39;;;;;;;16.83;3.50;;;10.00;99.90;;;;;;6247864;22;20087;-82
2022/10/11 09:38:29;;;;;;;12.88;2.90;;;10.00;99.90;;;;;;6248963;22;20382;-83
2022/10/11 09:41:13;;;;;;;11.68;2.50;;;10.20;99.90;;;;;;6274564;22;20086;-84
2022/10/11 09:43:39;;;;;;;13.43;2.90;;;10.20;99.90;;;;;;6275055;22;20015;-84
2022/10/11 09:46:35;;;;;;;10.07;2.55;;;10.40;99.90;;;;;;6276314;22;20336;-83
2022/10/11 09:49:06;;;;;;;14.35;3.38;;;10.40;99.90;;;;;;6276336;22;20020;-85
2022/10/11 09:51:33;;;;;;;13.32;2.60;;;11.20;99.90;;;;;;6247740;22;20125;-83
2022/10/11 09:54:04;;;;;;;12.85;2.67;;;10.50;99.90;;;;;;6248372;22;20047;-82
2022/10/11 09:56:33;;;;;;;12.70;2.72;;;10.70;99.90;;;;;;6274923;22;20022;-82
2022/10/11 09:59:28;;;;;;;11.32;2.38;;;10.80;99.90;;;;;;6275976;22;20016;-82
2022/10/11 10:02:12;;;;;;;13.68;2.40;;;11.00;99.90;;;;;;6248608;22;20022;-83
2022/10/11 10:05:09;;;;;;;8.82;2.15;;;11.10;99.90;;;;;;6247662;22;20019;-82
2022/10/11 10:07:38;;;;;;;11.20;2.40;;;11.10;99.90;;;;;;6246235;22;20031;-84
2022/10/11 10:10:48;;;;;;;11.70;2.10;;;11.20;99.90;;;;;;6247702;22;20220;-83
2022/10/11 10:13:16;;;;;;;11.38;2.47;;;11.20;99.90;;;;;;6229508;22;20065;-83
2022/10/11 10:15:46;;;;;;;13.30;2.50;;;11.30;99.90;;;;;;6245413;22;20022;-83
2022/10/11 10:18:35;;;;;;;11.98;2.88;;;12.90;99.90;;;;;;6212866;23;20020;-83
2022/10/11 10:21:03;;;;;;;11.82;2.58;;;11.50;99.90;;;;;;6212506;23;20016;-81
2022/10/11 10:23:38;;;;;;;12.95;2.25;;;11.70;99.90;;;;;;6187329;23;20039;-82
2022/10/11 10:26:22;;;;;;;15.00;2.53;;;11.80;99.90;;;;;;6214056;23;20017;-82
2022/10/11 10:29:09;;;;;;;10.10;2.00;;;11.90;99.90;;;;;;6211768;23;20102;-84
2022/10/11 10:31:36;;;;;;;9.90;1.80;;;12.00;99.90;;;;;;6214643;23;20083;-84
2022/10/11 10:34:10;;;;;;;14.35;2.67;;;12.20;99.90;;;;;;6213456;23;20016;-84
2022/10/11 10:36:42;;;;;;;10.82;2.20;;;12.30;99.90;;;;;;6214445;23;20468;-84
2022/10/11 10:39:20;;;;;;;10.13;2.22;;;13.30;99.90;;;;;;6212449;23;20043;-84
2022/10/11 10:41:46;;;;;;;12.32;3.50;;;13.10;99.90;;;;;;6187456;23;20040;-85
2022/10/11 10:44:14;;;;;;;9.27;2.08;;;12.60;99.90;;;;;;6212338;23;20461;-84
2022/10/11 10:47:09;;;;;;;11.57;2.28;;;12.60;99.90;;;;;;6211582;23;20103;-85
2022/10/11 10:57:45;;;;;;;9.55;2.13;;;13.10;99.90;;;;;;6121424;23;20068;-83
2022/10/11 11:04:25;;;;;;;11.25;2.10;;;14.50;99.90;;;;;;6242896;22;20332;-83
2022/10/11 11:07:28;;;;;;;12.48;2.50;;;12.80;99.90;;;;;;6242400;23;20021;-83
2022/10/11 11:16:25;;;;;;;13.93;2.88;;;13.90;99.90;;;;;;6215813;23;20016;-83
2022/10/11 11:18:56;;;;;;;9.80;2.10;;;13.50;99.90;;;;;;6244792;23;20055;-83
2022/10/11 11:21:33;;;;;;;11.90;2.85;;;14.90;99.90;;;;;;6216420;23;20047;-84
2022/10/11 11:24:12;;;;;;;10.55;2.67;;;14.00;99.90;;;;;;6244615;23;20016;-83
2022/10/11 11:26:47;;;;;;;13.57;2.67;;;14.10;99.90;;;;;;6217842;23;20332;-83
2022/10/11 11:29:32;;;;;;;14.23;2.78;;;14.20;99.90;;;;;;6257872;22;20069;-83
2022/10/11 11:35:43;;;;;;;10.38;2.22;;;14.40;99.90;;;;;;6248507;22;20023;-84
2022/10/11 11:38:31;;;;;;;;;;;14.90;99.90;;;;;;6277639;22;20035;-83
2022/10/11 11:41:34;;;;;;;13.70;2.72;;;14.90;99.90;;;;;;6249355;22;19941;-83
2022/10/11 11:44:24;;;;;;;12.98;2.40;;;14.80;99.90;;;;;;6248675;22;20016;-83
2022/10/11 11:47:12;;;;;;;12.68;2.40;;;15.30;99.90;;;;;;6250109;22;20023;-83
2022/10/11 11:50:34;;;;;;;11.75;2.10;;;16.40;99.90;;;;;;6247775;22;20026;-85
2022/10/11 11:53:44;;;;;;;13.15;2.00;;;15.20;99.90;;;;;;6237480;22;20400;-84
2022/10/11 11:59:52;;;;;;;15.45;2.40;;;15.40;99.90;;;;;;6267062;22;20043;-82
2022/10/11 12:35:41;;;;;;;12.18;2.22;;;16.10;99.90;;;;;;6163671;22;20479;-82
2022/10/11 12:38:31;;;;;;;13.30;2.20;;;15.50;99.90;;;;;;6247520;22;20118;-83
2022/10/11 12:41:17;;;;;;;11.40;2.22;;;15.30;99.90;;;;;;6223918;22;20024;-82
2022/10/11 12:43:49;;;;;;;10.73;2.20;;;16.40;99.90;;;;;;6241624;23;20020;-83
2022/10/11 12:46:27;;;;;;;12.48;2.47;;;16.60;99.90;;;;;;6218820;22;20047;-83
2022/10/11 12:49:24;;;;;;;10.75;2.72;;;16.20;99.90;;;;;;6244248;23;20539;-83
2022/10/11 12:52:20;;;;;;;12.70;2.17;;;15.60;99.90;;;;;;6243054;23;20051;-83
2022/10/11 12:55:24;;;;;;;14.27;2.40;;;15.80;99.90;;;;;;6243199;23;20078;-82
2022/10/11 12:58:28;;;;;;;12.77;2.30;;;15.80;99.90;;;;;;6242576;23;20407;-82
2022/10/11 13:01:09;;;;;;;;;;;15.40;99.90;;;;;;6242704;23;20336;-83
2022/10/11 13:07:53;;;;;;;9.63;2.53;;;16.30;99.90;;;;;;6227909;22;20399;-83
2022/10/11 13:19:31;;;;;;;11.15;1.90;;;16.80;99.90;;;;;;6268209;22;20020;-83
2022/10/11 13:22:19;;;;;;;9.73;2.10;;;16.00;99.90;;;;;;6247292;22;20020;-83
2022/10/11 13:25:23;;;;;;;11.70;2.17;;;18.00;99.90;;;;;;6247435;22;20076;-83
2022/10/11 13:28:17;;;;;;;11.32;2.10;;;16.70;99.90;;;;;;6246113;22;20018;-82
2022/10/11 13:31:04;;;;;;;8.07;2.35;;;16.10;99.90;;;;;;6274979;22;20070;-83
2022/10/11 13:33:40;;;;;;;11.30;2.47;;;16.80;99.90;;;;;;6275389;22;20121;-83
2022/10/11 13:36:14;;;;;;;10.13;2.17;;;16.80;99.90;;;;;;6247139;22;20107;-83
2022/10/11 13:38:40;;;;;;;11.25;2.28;;;16.90;99.90;;;;;;6275996;22;20049;-83
2022/10/11 13:41:09;;;;;;;12.38;2.20;;;16.90;99.90;;;;;;6248193;22;20012;-83
2022/10/11 13:43:35;;;;;;;12.27;2.22;;;17.50;99.90;;;;;;6247726;22;20022;-83
2022/10/11 13:46:05;;;;;;;12.10;2.33;;;16.90;99.90;;;;;;6248571;22;20022;-83
2022/10/11 13:48:37;;;;;;;11.18;2.40;;;17.80;99.90;;;;;;6277072;22;20016;-82
2022/10/11 13:51:36;;;;;;;8.68;2.10;;;16.70;99.90;;;;;;6275935;22;20016;-82
2022/10/11 13:54:06;;;;;;;15.80;2.38;;;16.40;99.90;;;;;;6276199;22;20008;-82
2022/10/11 13:57:22;;;;;;;8.40;2.00;;;16.20;99.90;;;;;;6264732;22;20207;-82
2022/10/11 13:59:48;;;;;;;10.70;2.38;;;16.00;99.90;;;;;;6248349;22;20341;-82
2022/10/11 14:02:19;;;;;;;10.45;2.30;;;16.30;99.90;;;;;;6247948;22;20019;-83
2022/10/11 14:04:47;;;;;;;10.10;2.10;;;17.20;99.90;;;;;;6275130;22;20440;-82
2022/10/11 14:07:39;;;;;;;11.55;2.10;;;17.00;99.90;;;;;;6247888;22;20015;-84
2022/10/11 14:10:05;;;;;;;10.05;2.33;;;16.20;99.90;;;;;;6240292;22;20073;-83
2022/10/11 14:12:39;;;;;;;10.85;2.28;;;16.30;99.90;;;;;;6275559;22;20042;-82
2022/10/11 14:15:41;;;;;;;14.88;2.38;;;16.20;99.90;;;;;;6274694;22;20015;-82
2022/10/11 14:18:46;;;;;;;11.02;2.03;;;16.20;99.90;;;;;;6247360;22;20448;-82
2022/10/11 14:21:33;;;;;;;10.23;2.42;;;16.10;99.90;;;;;;6271719;22;20024;-82
2022/10/11 14:24:30;;;;;;;9.35;2.20;;;16.10;99.90;;;;;;6247219;22;20443;-81
2022/10/11 14:27:21;;;;;;;10.32;2.15;;;15.10;99.90;;;;;;6275797;22;20039;-80
2022/10/11 14:29:47;;;;;;;14.93;2.63;;;16.90;99.90;;;;;;6248302;22;20012;-81
2022/10/11 14:32:30;;;;;;;10.75;2.80;;;15.30;99.90;;;;;;6274416;22;20014;-81
2022/10/11 14:34:56;;;;;;;11.55;2.63;;;15.10;99.90;;;;;;6248068;22;20517;-82
2022/10/11 14:37:22;;;;;;;12.10;2.38;;;14.90;99.90;;;;;;6274861;22;20053;-82
2022/10/11 14:39:51;;;;;;;69.43;44.78;;;14.80;99.90;;;;;;6274664;22;20019;-82
2022/10/11 14:42:17;;;;;;;16.23;7.68;;;14.70;99.90;;;;;;6247194;22;20016;-82
2022/10/11 14:44:43;;;;;;;16.90;8.48;;;14.60;99.90;;;;;;6247968;22;20082;-81